createdAt,value
2023-03-16T00:01:28.589Z,13.11
2023-03-16T00:05:29.954Z,13.21
2023-03-16T00:09:31.464Z,12.89
2023-03-16T00:13:32.941Z,12.80
2023-03-16T00:17:34.726Z,13.03
2023-03-16T00:21:36.127Z,13.04
2023-03-16T00:25:37.468Z,13.49
2023-03-16T00:29:38.912Z,13.45
2023-03-16T00:33:42.934Z,13.39
2023-03-16T00:37:44.488Z,13.47
2023-03-16T00:41:46.011Z,12.92
2023-03-16T00:45:47.482Z,13.40
2023-03-16T00:49:48.887Z,13.14
2023-03-16T00:53:50.361Z,13.18
2023-03-16T00:57:51.745Z,13.64
2023-03-16T01:01:56.831Z,12.85
2023-03-16T01:06:00.802Z,13.26
2023-03-16T01:10:03.999Z,13.37
2023-03-16T01:14:05.651Z,13.86
2023-03-16T01:18:08.985Z,13.41
2023-03-16T01:22:11.604Z,13.43
2023-03-16T01:26:13.068Z,13.32
2023-03-16T01:30:14.533Z,13.32
2023-03-16T01:34:18.445Z,13.50
2023-03-16T01:38:20.185Z,13.15
2023-03-16T01:42:21.551Z,13.22
2023-03-16T01:46:29.850Z,13.17
2023-03-16T01:50:31.572Z,12.77
2023-03-16T01:54:40.801Z,13.50
2023-03-16T01:58:44.935Z,12.52
2023-03-16T02:02:51.352Z,12.79
2023-03-16T02:06:55.270Z,13.54
2023-03-16T02:10:57.602Z,12.81
2023-03-16T02:14:59.002Z,13.18
2023-03-16T02:19:00.958Z,13.27
2023-03-16T02:23:04.765Z,13.46
2023-03-16T02:27:13.879Z,13.03
2023-03-16T02:31:18.956Z,13.50
2023-03-16T02:35:21.232Z,13.66
2023-03-16T02:39:22.695Z,12.81
2023-03-16T02:43:33.238Z,13.20
2023-03-16T02:47:41.521Z,13.23
2023-03-16T02:51:45.911Z,13.52
2023-03-16T02:55:47.680Z,13.36
2023-03-16T02:59:49.092Z,13.43
2023-03-16T03:03:50.525Z,12.50
2023-03-16T03:07:51.944Z,13.14
2023-03-16T03:11:53.217Z,12.96
2023-03-16T03:15:54.575Z,12.69
2023-03-16T03:20:00.544Z,13.29
2023-03-16T03:24:02.562Z,13.13
2023-03-16T03:28:05.624Z,13.57
2023-03-16T03:32:08.003Z,12.54
2023-03-16T03:36:09.957Z,13.03
2023-03-16T03:40:14.426Z,13.60
2023-03-16T03:44:15.820Z,12.69
2023-03-16T03:48:17.176Z,13.17
2023-03-16T03:52:18.568Z,13.21
2023-03-16T03:56:20.371Z,13.31
2023-03-16T04:00:21.907Z,13.13
2023-03-16T04:04:23.309Z,13.48
2023-03-16T04:08:24.642Z,12.76
2023-03-16T04:12:26.049Z,13.29
2023-03-16T04:16:27.408Z,13.18
2023-03-16T04:20:29.898Z,12.97
2023-03-16T04:24:34.145Z,12.84
2023-03-16T04:28:35.458Z,13.00
2023-03-16T04:32:37.411Z,12.80
2023-03-16T04:36:39.184Z,12.51
2023-03-16T04:40:40.558Z,12.87
2023-03-16T04:44:44.287Z,12.33
2023-03-16T04:48:45.674Z,13.06
2023-03-16T04:52:47.072Z,12.82
2023-03-16T04:56:48.412Z,13.21
2023-03-16T05:00:52.493Z,13.31
2023-03-16T05:04:55.123Z,13.17
2023-03-16T05:08:59.151Z,13.30
2023-03-16T05:13:00.852Z,13.01
2023-03-16T05:17:03.792Z,13.96
2023-03-16T05:21:05.314Z,13.41
2023-03-16T05:25:07.034Z,13.72
2023-03-16T05:29:08.342Z,13.26
2023-03-16T05:33:09.754Z,13.61
2023-03-16T05:37:11.364Z,13.40
2023-03-16T05:41:14.853Z,13.52
2023-03-16T05:45:17.525Z,13.63
2023-03-16T05:49:18.911Z,13.90
2023-03-16T05:53:20.318Z,13.70
2023-03-16T05:57:21.685Z,12.96
2023-03-16T06:01:23.827Z,13.08
2023-03-16T06:05:25.404Z,13.73
2023-03-16T06:09:26.734Z,13.95
2023-03-16T06:13:28.077Z,13.51
2023-03-16T06:17:29.628Z,13.74
2023-03-16T06:21:31.097Z,13.92
2023-03-16T06:25:32.390Z,13.58
2023-03-16T06:29:33.751Z,13.78
2023-03-16T06:33:35.141Z,13.54
2023-03-16T06:37:36.677Z,13.67
2023-03-16T06:41:38.022Z,14.32
2023-03-16T06:45:39.409Z,14.06
2023-03-16T06:49:40.830Z,14.57
2023-03-16T06:53:42.189Z,13.99
2023-03-16T06:57:43.495Z,13.95
2023-03-16T07:01:45.086Z,14.43
2023-03-16T07:05:46.704Z,14.66
2023-03-16T07:09:48.036Z,14.80
2023-03-16T07:13:49.333Z,14.30
2023-03-16T07:17:52.354Z,14.91
2023-03-16T07:21:53.996Z,15.40
2023-03-16T07:25:55.480Z,15.31
2023-03-16T07:29:56.792Z,14.69
2023-03-16T07:33:58.970Z,14.81
2023-03-16T07:38:01.444Z,14.99
2023-03-16T07:42:02.980Z,14.58
2023-03-16T07:46:04.508Z,14.42
2023-03-16T07:50:06.595Z,14.55
2023-03-16T07:54:07.912Z,14.92
2023-03-16T07:58:10.726Z,15.74
2023-03-16T08:02:17.678Z,15.98
2023-03-16T08:06:19.316Z,15.28
2023-03-16T08:10:21.003Z,14.72
2023-03-16T08:14:22.342Z,15.05
2023-03-16T08:18:25.722Z,14.99
2023-03-16T08:22:27.106Z,14.92
2023-03-16T08:26:29.547Z,15.01
2023-03-16T08:30:31.405Z,15.76
2023-03-16T08:34:33.103Z,15.03
2023-03-16T08:38:35.232Z,16.20
2023-03-16T08:42:38.824Z,17.07
2023-03-16T08:46:40.682Z,16.99
2023-03-16T08:50:44.029Z,16.89
2023-03-16T08:55:01.531Z,17.23
2023-03-16T08:59:03.671Z,16.87
2023-03-16T09:03:06.838Z,15.91
2023-03-16T09:07:09.767Z,16.60
2023-03-16T09:11:14.264Z,16.12
2023-03-16T09:15:16.410Z,16.32
2023-03-16T09:19:18.072Z,17.52
2023-03-16T09:23:20.816Z,16.35
2023-03-16T09:27:22.478Z,18.05
2023-03-16T09:31:23.956Z,17.71
2023-03-16T09:35:26.613Z,18.99
2023-03-16T09:39:28.274Z,18.14
2023-03-16T09:43:44.435Z,18.07
2023-03-16T09:47:50.437Z,18.57
2023-03-16T09:52:03.210Z,18.37
2023-03-16T09:56:14.971Z,18.55
2023-03-16T10:00:20.018Z,17.84
2023-03-16T10:04:47.816Z,18.57
2023-03-16T10:09:00.342Z,17.10
2023-03-16T10:13:05.145Z,18.07
2023-03-16T10:17:14.388Z,16.52
2023-03-16T10:21:19.367Z,17.48
2023-03-16T10:25:31.407Z,17.43
2023-03-16T10:29:36.792Z,18.44
2023-03-16T10:33:39.349Z,17.92
2023-03-16T10:52:43.275Z,19.01
2023-03-16T10:56:46.147Z,19.00
2023-03-16T11:00:47.809Z,19.80
2023-03-16T11:04:50.712Z,19.30
2023-03-16T11:08:53.983Z,20.12
2023-03-16T11:13:02.425Z,19.77
2023-03-16T11:17:12.632Z,21.44
2023-03-16T11:21:25.622Z,22.33
2023-03-16T11:25:38.539Z,22.09
2023-03-16T11:30:27.316Z,21.04
2023-03-16T11:34:30.972Z,22.88
2023-03-16T11:39:00.419Z,21.46
2023-03-16T11:43:39.597Z,21.50
2023-03-16T11:48:15.845Z,22.44
2023-03-16T11:52:43.717Z,22.85
2023-03-16T11:56:54.627Z,23.12
2023-03-16T12:01:12.335Z,24.65
2023-03-16T12:05:25.584Z,23.97
2023-03-16T12:09:55.811Z,22.83
2023-03-16T12:14:00.420Z,22.75
2023-03-16T12:18:17.245Z,23.00
2023-03-16T12:22:39.580Z,21.48
2023-03-16T12:26:43.080Z,21.97
2023-03-16T12:30:55.554Z,22.66
2023-03-16T12:35:17.695Z,22.17
2023-03-16T12:39:30.323Z,20.46
2023-03-16T12:43:42.923Z,21.51
2023-03-16T12:47:58.751Z,20.82
2023-03-16T12:52:00.074Z,20.57
2023-03-16T12:56:08.583Z,22.43
2023-03-16T13:00:11.675Z,21.57
2023-03-16T13:04:19.781Z,20.23
2023-03-16T13:08:22.802Z,21.14
2023-03-16T13:12:36.995Z,20.98
2023-03-16T13:16:39.350Z,20.50
2023-03-16T13:20:58.651Z,21.86
2023-03-16T13:25:28.790Z,21.53
2023-03-16T13:29:32.532Z,21.36
2023-03-16T13:33:38.153Z,21.36
2023-03-16T13:37:43.593Z,20.65
2023-03-16T13:41:57.167Z,20.19
2023-03-16T13:45:58.957Z,20.59
2023-03-16T13:50:00.496Z,19.90
2023-03-16T13:54:18.432Z,20.77
2023-03-16T13:58:35.520Z,19.99
2023-03-16T14:02:42.560Z,20.02
2023-03-16T14:06:52.659Z,20.44
2023-03-16T14:10:59.138Z,21.39
2023-03-16T14:15:06.104Z,20.88
2023-03-16T14:19:20.218Z,20.95
2023-03-16T14:23:33.473Z,20.68
2023-03-16T14:27:40.894Z,21.56
2023-03-16T14:31:42.339Z,20.73
2023-03-16T14:35:44.693Z,20.78
2023-03-16T14:39:57.977Z,21.13
2023-03-16T14:44:01.571Z,21.31
2023-03-16T14:48:21.161Z,20.84
2023-03-16T14:52:31.673Z,20.72
2023-03-16T14:56:35.198Z,20.19
2023-03-16T15:00:50.164Z,21.74
2023-03-16T15:04:56.594Z,21.57
2023-03-16T15:08:58.774Z,20.76
2023-03-16T15:13:24.315Z,20.15
2023-03-16T15:17:25.963Z,20.50
2023-03-16T15:21:31.398Z,20.85
2023-03-16T15:25:38.258Z,20.25
2023-03-16T15:29:39.715Z,21.52
2023-03-16T15:33:42.078Z,21.73
2023-03-16T15:37:43.774Z,20.74
2023-03-16T15:41:47.776Z,20.56
2023-03-16T15:45:49.600Z,20.66
2023-03-16T15:49:51.163Z,20.65
2023-03-16T15:54:04.746Z,20.23
2023-03-16T15:58:15.986Z,20.57
2023-03-16T16:02:37.595Z,20.96
2023-03-16T16:06:38.922Z,20.90
2023-03-16T16:10:41.481Z,20.48
2023-03-16T16:14:42.883Z,20.47
2023-03-16T16:18:45.095Z,20.93
2023-03-16T16:22:47.192Z,20.34
2023-03-16T16:26:55.230Z,21.16
2023-03-16T16:30:59.240Z,20.94
2023-03-16T16:35:04.623Z,20.34
2023-03-16T16:39:06.726Z,20.51
2023-03-16T16:43:29.920Z,20.66
2023-03-16T16:47:31.292Z,20.11
2023-03-16T16:51:33.214Z,20.72
2023-03-16T16:55:34.692Z,20.71
2023-03-16T16:59:37.687Z,20.44
2023-03-16T17:03:39.008Z,19.79
2023-03-16T17:07:40.342Z,21.15
2023-03-16T17:11:43.739Z,19.71
2023-03-16T17:15:45.229Z,20.37
2023-03-16T17:19:47.073Z,20.59
2023-03-16T17:23:48.946Z,20.09
2023-03-16T17:27:53.424Z,19.77
2023-03-16T17:31:54.801Z,20.56
2023-03-16T17:35:56.320Z,19.84
2023-03-16T17:39:57.895Z,19.94
2023-03-16T17:44:04.806Z,19.97
2023-03-16T17:48:13.219Z,19.98
2023-03-16T17:52:18.210Z,19.78
2023-03-16T17:56:26.637Z,19.53
2023-03-16T18:00:33.364Z,20.08
2023-03-16T18:04:34.922Z,20.02
2023-03-16T18:08:36.730Z,19.81
2023-03-16T18:12:38.191Z,19.54
2023-03-16T18:16:40.582Z,19.33
2023-03-16T18:20:42.302Z,19.69
2023-03-16T18:24:44.947Z,19.42
2023-03-16T18:28:46.408Z,19.88
2023-03-16T18:32:47.730Z,19.79
2023-03-16T18:36:51.277Z,19.51
2023-03-16T18:40:52.657Z,19.24
2023-03-16T18:44:54.033Z,19.18
2023-03-16T18:48:57.960Z,19.23
2023-03-16T18:52:59.347Z,19.02
2023-03-16T18:57:04.154Z,19.87
2023-03-16T19:01:06.272Z,19.12
2023-03-16T19:05:35.632Z,19.28
2023-03-16T19:09:37.138Z,19.32
2023-03-16T19:13:38.543Z,19.29
2023-03-16T19:17:39.937Z,18.83
2023-03-16T19:21:42.811Z,18.94
2023-03-16T19:25:45.959Z,19.01
2023-03-16T19:29:49.867Z,18.43
2023-03-16T19:33:52.994Z,19.36
2023-03-16T19:37:54.469Z,19.46
2023-03-16T19:41:58.320Z,19.94
2023-03-16T19:45:59.655Z,19.28
2023-03-16T19:50:01.751Z,19.56
2023-03-16T19:54:03.143Z,19.12
2023-03-16T19:58:07.445Z,18.96
2023-03-16T20:02:31.926Z,19.07
2023-03-16T20:06:33.421Z,19.59
2023-03-16T20:10:34.982Z,19.35
2023-03-16T20:14:36.295Z,18.56
2023-03-16T20:18:37.792Z,19.27
2023-03-16T20:22:39.136Z,18.78
2023-03-16T20:26:40.925Z,18.80
2023-03-16T20:30:42.401Z,18.68
2023-03-16T20:34:45.210Z,19.34
2023-03-16T20:38:47.173Z,18.87
2023-03-16T20:42:49.695Z,18.70
2023-03-16T20:46:51.251Z,18.72
2023-03-16T20:50:54.374Z,18.57
2023-03-16T20:54:55.783Z,18.96
2023-03-16T20:58:57.852Z,19.21
2023-03-16T21:02:59.729Z,18.75
2023-03-16T21:07:01.138Z,19.13
2023-03-16T21:11:02.466Z,18.70
2023-03-16T21:15:16.180Z,18.81
2023-03-16T21:19:21.148Z,18.92
2023-03-16T21:23:23.877Z,19.23
2023-03-16T21:27:27.723Z,18.56
2023-03-16T21:31:29.116Z,18.69
2023-03-16T21:35:36.098Z,18.49
2023-03-16T21:39:37.449Z,18.88
2023-03-16T21:43:39.496Z,18.95
2023-03-16T21:47:41.433Z,19.01
2023-03-16T21:51:43.205Z,18.45
2023-03-16T21:55:44.538Z,18.58
2023-03-16T21:59:46.521Z,19.11
2023-03-16T22:03:51.355Z,18.73
2023-03-16T22:07:52.883Z,18.59
2023-03-16T22:11:54.258Z,18.39
2023-03-16T22:15:58.255Z,19.21
2023-03-16T22:19:59.804Z,18.94
2023-03-16T22:24:05.198Z,18.54
2023-03-16T22:28:12.460Z,18.90
2023-03-16T22:32:19.541Z,18.78
2023-03-16T22:36:22.088Z,18.69
2023-03-16T22:40:27.458Z,18.62
2023-03-16T22:44:28.835Z,18.89
2023-03-16T22:48:31.516Z,18.57
2023-03-16T22:52:37.168Z,18.52
2023-03-16T22:56:39.671Z,18.68
2023-03-16T23:00:41.429Z,18.20
2023-03-16T23:04:43.112Z,18.51
2023-03-16T23:08:48.198Z,18.88
2023-03-16T23:12:51.611Z,19.07
2023-03-16T23:16:53.430Z,18.68
2023-03-16T23:20:54.795Z,18.24
2023-03-16T23:24:56.586Z,18.51
2023-03-16T23:29:03.570Z,18.81
2023-03-16T23:33:04.941Z,18.87
2023-03-16T23:37:06.726Z,18.95
2023-03-16T23:41:10.272Z,19.07
2023-03-16T23:45:23.678Z,18.93
2023-03-16T23:49:32.494Z,18.74
2023-03-16T23:53:33.825Z,19.03
2023-03-16T23:57:35.181Z,19.04
